sensor_id;sensor_type;location;lat;lon;timestamp;P1;durP1;ratioP1;P2;durP2;ratioP2
8978;SDS011;4524;51.364;5.448;2022-10-26T00:01:20;9.97;;;5.07;;
8978;SDS011;4524;51.364;5.448;2022-10-26T00:03:48;8.43;;;5.20;;
8978;SDS011;4524;51.364;5.448;2022-10-26T00:06:17;5.40;;;4.33;;
8978;SDS011;4524;51.364;5.448;2022-10-26T00:08:46;7.77;;;4.70;;
8978;SDS011;4524;51.364;5.448;2022-10-26T00:11:16;9.13;;;5.67;;
8978;SDS011;4524;51.364;5.448;2022-10-26T00:13:45;9.67;;;5.70;;
8978;SDS011;4524;51.364;5.448;2022-10-26T00:16:15;7.53;;;4.90;;
8978;SDS011;4524;51.364;5.448;2022-10-26T00:18:45;6.67;;;5.03;;
8978;SDS011;4524;51.364;5.448;2022-10-26T00:21:13;7.93;;;5.10;;
8978;SDS011;4524;51.364;5.448;2022-10-26T00:23:41;8.03;;;4.83;;
8978;SDS011;4524;51.364;5.448;2022-10-26T00:26:09;8.23;;;4.53;;
8978;SDS011;4524;51.364;5.448;2022-10-26T00:28:38;7.83;;;5.10;;
8978;SDS011;4524;51.364;5.448;2022-10-26T00:31:07;5.97;;;4.57;;
8978;SDS011;4524;51.364;5.448;2022-10-26T00:33:38;9.63;;;5.13;;
8978;SDS011;4524;51.364;5.448;2022-10-26T00:36:06;12.90;;;5.20;;
8978;SDS011;4524;51.364;5.448;2022-10-26T00:38:35;7.50;;;5.10;;
8978;SDS011;4524;51.364;5.448;2022-10-26T00:41:03;9.57;;;5.40;;
8978;SDS011;4524;51.364;5.448;2022-10-26T00:43:32;5.53;;;4.20;;
8978;SDS011;4524;51.364;5.448;2022-10-26T00:46:03;8.90;;;4.70;;
8978;SDS011;4524;51.364;5.448;2022-10-26T00:48:39;6.73;;;5.00;;
8978;SDS011;4524;51.364;5.448;2022-10-26T00:51:12;7.10;;;4.70;;
8978;SDS011;4524;51.364;5.448;2022-10-26T00:53:44;8.93;;;5.40;;
8978;SDS011;4524;51.364;5.448;2022-10-26T00:56:12;5.47;;;4.73;;
8978;SDS011;4524;51.364;5.448;2022-10-26T00:58:40;8.10;;;4.60;;
8978;SDS011;4524;51.364;5.448;2022-10-26T01:01:10;6.93;;;4.77;;
8978;SDS011;4524;51.364;5.448;2022-10-26T01:03:38;8.60;;;4.97;;
8978;SDS011;4524;51.364;5.448;2022-10-26T01:06:06;6.77;;;5.00;;
8978;SDS011;4524;51.364;5.448;2022-10-26T01:08:35;7.90;;;4.80;;
8978;SDS011;4524;51.364;5.448;2022-10-26T01:11:03;7.93;;;4.50;;
8978;SDS011;4524;51.364;5.448;2022-10-26T01:13:32;6.53;;;5.03;;
8978;SDS011;4524;51.364;5.448;2022-10-26T01:16:05;8.63;;;4.70;;
8978;SDS011;4524;51.364;5.448;2022-10-26T01:18:45;11.00;;;5.43;;
8978;SDS011;4524;51.364;5.448;2022-10-26T01:27:19;8.50;;;4.77;;
8978;SDS011;4524;51.364;5.448;2022-10-26T01:35:51;8.53;;;5.13;;
8978;SDS011;4524;51.364;5.448;2022-10-26T01:38:28;6.20;;;4.93;;
8978;SDS011;4524;51.364;5.448;2022-10-26T01:41:20;9.50;;;4.97;;
8978;SDS011;4524;51.364;5.448;2022-10-26T01:43:54;7.43;;;5.10;;
8978;SDS011;4524;51.364;5.448;2022-10-26T01:46:27;9.83;;;5.57;;
8978;SDS011;4524;51.364;5.448;2022-10-26T01:49:00;7.50;;;5.13;;
8978;SDS011;4524;51.364;5.448;2022-10-26T01:51:32;6.33;;;4.70;;
8978;SDS011;4524;51.364;5.448;2022-10-26T01:54:01;8.50;;;5.20;;
8978;SDS011;4524;51.364;5.448;2022-10-26T01:56:30;7.97;;;5.20;;
8978;SDS011;4524;51.364;5.448;2022-10-26T01:59:12;12.50;;;5.23;;
8978;SDS011;4524;51.364;5.448;2022-10-26T02:01:59;7.13;;;5.57;;
8978;SDS011;4524;51.364;5.448;2022-10-26T02:05:04;8.70;;;5.20;;
8978;SDS011;4524;51.364;5.448;2022-10-26T02:07:57;8.50;;;5.53;;
8978;SDS011;4524;51.364;5.448;2022-10-26T02:10:37;11.00;;;5.50;;
8978;SDS011;4524;51.364;5.448;2022-10-26T02:13:15;8.30;;;5.60;;
8978;SDS011;4524;51.364;5.448;2022-10-26T02:15:48;8.63;;;5.60;;
8978;SDS011;4524;51.364;5.448;2022-10-26T02:18:24;12.03;;;6.03;;
8978;SDS011;4524;51.364;5.448;2022-10-26T02:20:58;9.27;;;5.67;;
8978;SDS011;4524;51.364;5.448;2022-10-26T02:23:30;9.40;;;5.70;;
8978;SDS011;4524;51.364;5.448;2022-10-26T02:26:02;8.73;;;5.93;;
8978;SDS011;4524;51.364;5.448;2022-10-26T02:28:37;8.67;;;5.50;;
8978;SDS011;4524;51.364;5.448;2022-10-26T02:31:11;9.57;;;5.40;;
8978;SDS011;4524;51.364;5.448;2022-10-26T02:33:43;8.70;;;5.67;;
8978;SDS011;4524;51.364;5.448;2022-10-26T02:36:20;9.10;;;5.80;;
8978;SDS011;4524;51.364;5.448;2022-10-26T02:38:51;7.13;;;5.30;;
8978;SDS011;4524;51.364;5.448;2022-10-26T02:41:21;9.40;;;5.53;;
8978;SDS011;4524;51.364;5.448;2022-10-26T02:43:53;11.80;;;5.70;;
8978;SDS011;4524;51.364;5.448;2022-10-26T02:46:28;6.93;;;5.43;;
8978;SDS011;4524;51.364;5.448;2022-10-26T02:48:57;9.50;;;5.37;;
8978;SDS011;4524;51.364;5.448;2022-10-26T02:51:27;9.93;;;5.90;;
8978;SDS011;4524;51.364;5.448;2022-10-26T02:54:00;7.63;;;5.53;;
8978;SDS011;4524;51.364;5.448;2022-10-26T02:56:39;7.40;;;5.10;;
8978;SDS011;4524;51.364;5.448;2022-10-26T02:59:10;7.17;;;5.10;;
8978;SDS011;4524;51.364;5.448;2022-10-26T03:01:39;8.90;;;4.80;;
8978;SDS011;4524;51.364;5.448;2022-10-26T03:04:09;7.60;;;5.10;;
8978;SDS011;4524;51.364;5.448;2022-10-26T03:06:37;8.43;;;5.03;;
8978;SDS011;4524;51.364;5.448;2022-10-26T03:09:05;7.87;;;5.50;;
8978;SDS011;4524;51.364;5.448;2022-10-26T03:11:33;9.37;;;4.83;;
8978;SDS011;4524;51.364;5.448;2022-10-26T03:14:01;9.80;;;5.00;;
8978;SDS011;4524;51.364;5.448;2022-10-26T03:16:29;10.17;;;5.10;;
8978;SDS011;4524;51.364;5.448;2022-10-26T03:18:57;8.10;;;4.83;;
8978;SDS011;4524;51.364;5.448;2022-10-26T03:21:26;8.87;;;4.63;;
8978;SDS011;4524;51.364;5.448;2022-10-26T03:23:54;7.00;;;4.50;;
8978;SDS011;4524;51.364;5.448;2022-10-26T03:26:22;7.63;;;4.57;;
8978;SDS011;4524;51.364;5.448;2022-10-26T03:28:50;9.67;;;5.07;;
8978;SDS011;4524;51.364;5.448;2022-10-26T03:31:18;11.77;;;5.43;;
8978;SDS011;4524;51.364;5.448;2022-10-26T03:33:46;8.43;;;4.50;;
8978;SDS011;4524;51.364;5.448;2022-10-26T03:36:13;8.43;;;4.20;;
8978;SDS011;4524;51.364;5.448;2022-10-26T03:38:43;7.73;;;4.33;;
8978;SDS011;4524;51.364;5.448;2022-10-26T03:41:10;6.57;;;4.10;;
8978;SDS011;4524;51.364;5.448;2022-10-26T03:43:38;7.73;;;4.33;;
8978;SDS011;4524;51.364;5.448;2022-10-26T03:46:06;6.43;;;4.23;;
8978;SDS011;4524;51.364;5.448;2022-10-26T03:48:34;10.53;;;4.73;;
8978;SDS011;4524;51.364;5.448;2022-10-26T03:51:02;7.27;;;4.20;;
8978;SDS011;4524;51.364;5.448;2022-10-26T03:53:30;9.93;;;4.60;;
8978;SDS011;4524;51.364;5.448;2022-10-26T03:55:59;10.57;;;4.30;;
8978;SDS011;4524;51.364;5.448;2022-10-26T03:58:27;7.10;;;4.30;;
8978;SDS011;4524;51.364;5.448;2022-10-26T04:00:55;5.57;;;3.87;;
8978;SDS011;4524;51.364;5.448;2022-10-26T04:03:22;10.03;;;4.33;;
8978;SDS011;4524;51.364;5.448;2022-10-26T04:05:50;6.63;;;4.30;;
8978;SDS011;4524;51.364;5.448;2022-10-26T04:08:18;5.83;;;3.77;;
8978;SDS011;4524;51.364;5.448;2022-10-26T04:10:46;5.67;;;3.80;;
8978;SDS011;4524;51.364;5.448;2022-10-26T04:13:15;7.17;;;3.80;;
8978;SDS011;4524;51.364;5.448;2022-10-26T04:15:43;6.80;;;3.83;;
8978;SDS011;4524;51.364;5.448;2022-10-26T04:18:11;7.07;;;3.70;;
8978;SDS011;4524;51.364;5.448;2022-10-26T04:20:39;7.63;;;3.57;;
8978;SDS011;4524;51.364;5.448;2022-10-26T04:23:09;4.13;;;3.63;;
8978;SDS011;4524;51.364;5.448;2022-10-26T04:25:38;8.80;;;4.13;;
8978;SDS011;4524;51.364;5.448;2022-10-26T04:28:06;9.90;;;4.27;;
8978;SDS011;4524;51.364;5.448;2022-10-26T04:30:37;6.17;;;3.53;;
8978;SDS011;4524;51.364;5.448;2022-10-26T04:33:05;5.93;;;3.80;;
8978;SDS011;4524;51.364;5.448;2022-10-26T04:35:33;7.83;;;4.40;;
8978;SDS011;4524;51.364;5.448;2022-10-26T04:38:02;8.93;;;3.87;;
8978;SDS011;4524;51.364;5.448;2022-10-26T04:40:31;9.40;;;4.07;;
8978;SDS011;4524;51.364;5.448;2022-10-26T04:43:00;9.43;;;4.23;;
8978;SDS011;4524;51.364;5.448;2022-10-26T04:45:28;6.67;;;3.70;;
8978;SDS011;4524;51.364;5.448;2022-10-26T04:48:02;7.83;;;3.53;;
8978;SDS011;4524;51.364;5.448;2022-10-26T04:50:31;8.40;;;3.90;;
8978;SDS011;4524;51.364;5.448;2022-10-26T04:53:01;6.40;;;3.73;;
8978;SDS011;4524;51.364;5.448;2022-10-26T04:55:29;7.20;;;3.30;;
8978;SDS011;4524;51.364;5.448;2022-10-26T04:57:57;6.30;;;3.57;;
8978;SDS011;4524;51.364;5.448;2022-10-26T05:00:27;7.67;;;3.57;;
8978;SDS011;4524;51.364;5.448;2022-10-26T05:02:58;6.90;;;3.73;;
8978;SDS011;4524;51.364;5.448;2022-10-26T05:05:27;9.17;;;3.60;;
8978;SDS011;4524;51.364;5.448;2022-10-26T05:07:56;5.97;;;3.17;;
8978;SDS011;4524;51.364;5.448;2022-10-26T05:10:24;6.43;;;3.50;;
8978;SDS011;4524;51.364;5.448;2022-10-26T05:12:53;5.60;;;3.80;;
8978;SDS011;4524;51.364;5.448;2022-10-26T05:15:22;5.90;;;3.17;;
8978;SDS011;4524;51.364;5.448;2022-10-26T05:17:53;6.37;;;3.50;;
8978;SDS011;4524;51.364;5.448;2022-10-26T05:20:22;7.27;;;3.57;;
8978;SDS011;4524;51.364;5.448;2022-10-26T05:22:56;9.80;;;3.87;;
8978;SDS011;4524;51.364;5.448;2022-10-26T05:25:26;6.03;;;3.40;;
8978;SDS011;4524;51.364;5.448;2022-10-26T05:27:56;4.73;;;3.40;;
8978;SDS011;4524;51.364;5.448;2022-10-26T05:30:25;10.23;;;3.80;;
8978;SDS011;4524;51.364;5.448;2022-10-26T05:32:53;7.40;;;3.50;;
8978;SDS011;4524;51.364;5.448;2022-10-26T05:35:21;5.00;;;3.43;;
8978;SDS011;4524;51.364;5.448;2022-10-26T05:37:49;5.93;;;3.30;;
8978;SDS011;4524;51.364;5.448;2022-10-26T05:40:19;7.07;;;3.77;;
8978;SDS011;4524;51.364;5.448;2022-10-26T05:42:47;6.47;;;3.13;;
8978;SDS011;4524;51.364;5.448;2022-10-26T05:45:16;8.70;;;3.57;;
8978;SDS011;4524;51.364;5.448;2022-10-26T05:47:45;7.37;;;3.60;;
8978;SDS011;4524;51.364;5.448;2022-10-26T05:50:13;5.90;;;3.43;;
8978;SDS011;4524;51.364;5.448;2022-10-26T05:52:42;5.93;;;3.20;;
8978;SDS011;4524;51.364;5.448;2022-10-26T05:55:11;9.50;;;3.90;;
8978;SDS011;4524;51.364;5.448;2022-10-26T05:57:42;6.23;;;3.47;;
8978;SDS011;4524;51.364;5.448;2022-10-26T06:00:14;6.53;;;3.47;;
8978;SDS011;4524;51.364;5.448;2022-10-26T06:02:47;8.60;;;3.00;;
8978;SDS011;4524;51.364;5.448;2022-10-26T06:05:25;8.90;;;3.43;;
8978;SDS011;4524;51.364;5.448;2022-10-26T06:07:55;6.90;;;3.73;;
8978;SDS011;4524;51.364;5.448;2022-10-26T06:10:24;6.87;;;3.40;;
8978;SDS011;4524;51.364;5.448;2022-10-26T06:12:54;5.83;;;3.20;;
8978;SDS011;4524;51.364;5.448;2022-10-26T06:15:22;6.37;;;3.17;;
8978;SDS011;4524;51.364;5.448;2022-10-26T06:17:54;5.63;;;3.43;;
8978;SDS011;4524;51.364;5.448;2022-10-26T06:20:32;5.07;;;3.20;;
8978;SDS011;4524;51.364;5.448;2022-10-26T06:23:16;5.50;;;3.57;;
8978;SDS011;4524;51.364;5.448;2022-10-26T06:26:00;7.00;;;3.60;;
8978;SDS011;4524;51.364;5.448;2022-10-26T06:28:35;8.07;;;3.60;;
8978;SDS011;4524;51.364;5.448;2022-10-26T06:31:13;6.03;;;3.20;;
8978;SDS011;4524;51.364;5.448;2022-10-26T06:33:41;6.53;;;3.37;;
8978;SDS011;4524;51.364;5.448;2022-10-26T06:36:13;6.53;;;3.03;;
8978;SDS011;4524;51.364;5.448;2022-10-26T06:38:47;6.73;;;3.37;;
8978;SDS011;4524;51.364;5.448;2022-10-26T06:41:19;4.03;;;3.00;;
8978;SDS011;4524;51.364;5.448;2022-10-26T06:43:49;8.47;;;3.00;;
8978;SDS011;4524;51.364;5.448;2022-10-26T06:46:21;6.50;;;3.03;;
8978;SDS011;4524;51.364;5.448;2022-10-26T06:48:59;8.73;;;3.60;;
8978;SDS011;4524;51.364;5.448;2022-10-26T06:51:37;3.87;;;2.67;;
8978;SDS011;4524;51.364;5.448;2022-10-26T06:54:12;4.77;;;3.17;;
8978;SDS011;4524;51.364;5.448;2022-10-26T06:56:44;6.23;;;3.10;;
8978;SDS011;4524;51.364;5.448;2022-10-26T06:59:17;7.90;;;3.23;;
8978;SDS011;4524;51.364;5.448;2022-10-26T07:01:56;7.40;;;3.17;;
8978;SDS011;4524;51.364;5.448;2022-10-26T07:04:29;7.37;;;3.33;;
8978;SDS011;4524;51.364;5.448;2022-10-26T07:06:57;6.57;;;3.10;;
8978;SDS011;4524;51.364;5.448;2022-10-26T07:09:25;6.37;;;3.03;;
8978;SDS011;4524;51.364;5.448;2022-10-26T07:11:53;5.93;;;3.03;;
8978;SDS011;4524;51.364;5.448;2022-10-26T07:14:22;5.00;;;3.30;;
8978;SDS011;4524;51.364;5.448;2022-10-26T07:16:50;4.80;;;3.10;;
8978;SDS011;4524;51.364;5.448;2022-10-26T07:19:18;6.83;;;2.87;;
8978;SDS011;4524;51.364;5.448;2022-10-26T07:21:46;6.90;;;3.00;;
8978;SDS011;4524;51.364;5.448;2022-10-26T07:24:14;6.67;;;3.10;;
8978;SDS011;4524;51.364;5.448;2022-10-26T07:26:41;5.00;;;2.93;;
8978;SDS011;4524;51.364;5.448;2022-10-26T07:29:09;6.87;;;3.17;;
8978;SDS011;4524;51.364;5.448;2022-10-26T07:31:38;5.20;;;2.60;;
8978;SDS011;4524;51.364;5.448;2022-10-26T07:34:06;4.80;;;3.30;;
8978;SDS011;4524;51.364;5.448;2022-10-26T07:36:34;3.80;;;2.70;;
8978;SDS011;4524;51.364;5.448;2022-10-26T07:39:02;5.80;;;3.17;;
8978;SDS011;4524;51.364;5.448;2022-10-26T07:41:31;4.17;;;3.30;;
8978;SDS011;4524;51.364;5.448;2022-10-26T07:43:59;6.67;;;3.10;;
8978;SDS011;4524;51.364;5.448;2022-10-26T07:46:27;6.23;;;3.50;;
8978;SDS011;4524;51.364;5.448;2022-10-26T07:48:56;6.17;;;3.47;;
8978;SDS011;4524;51.364;5.448;2022-10-26T07:51:24;5.80;;;2.93;;
8978;SDS011;4524;51.364;5.448;2022-10-26T07:53:52;7.93;;;3.10;;
8978;SDS011;4524;51.364;5.448;2022-10-26T07:56:19;7.27;;;3.60;;
8978;SDS011;4524;51.364;5.448;2022-10-26T07:58:47;6.47;;;3.33;;
8978;SDS011;4524;51.364;5.448;2022-10-26T08:01:18;5.97;;;3.17;;
8978;SDS011;4524;51.364;5.448;2022-10-26T08:03:47;4.77;;;3.10;;
8978;SDS011;4524;51.364;5.448;2022-10-26T08:06:19;5.80;;;3.00;;
8978;SDS011;4524;51.364;5.448;2022-10-26T08:08:47;4.63;;;2.80;;
8978;SDS011;4524;51.364;5.448;2022-10-26T08:11:15;4.90;;;2.90;;
8978;SDS011;4524;51.364;5.448;2022-10-26T08:13:43;5.83;;;2.57;;
8978;SDS011;4524;51.364;5.448;2022-10-26T08:16:12;6.00;;;3.10;;
8978;SDS011;4524;51.364;5.448;2022-10-26T08:18:40;3.93;;;2.57;;
8978;SDS011;4524;51.364;5.448;2022-10-26T08:21:09;4.83;;;2.50;;
8978;SDS011;4524;51.364;5.448;2022-10-26T08:23:47;5.53;;;2.53;;
8978;SDS011;4524;51.364;5.448;2022-10-26T08:26:15;6.00;;;2.53;;
8978;SDS011;4524;51.364;5.448;2022-10-26T08:28:47;6.47;;;2.23;;
8978;SDS011;4524;51.364;5.448;2022-10-26T08:31:15;5.30;;;2.10;;
8978;SDS011;4524;51.364;5.448;2022-10-26T08:33:43;3.93;;;2.00;;
8978;SDS011;4524;51.364;5.448;2022-10-26T08:36:10;5.63;;;2.10;;
8978;SDS011;4524;51.364;5.448;2022-10-26T08:38:45;6.37;;;2.57;;
8978;SDS011;4524;51.364;5.448;2022-10-26T08:41:15;3.53;;;2.00;;
8978;SDS011;4524;51.364;5.448;2022-10-26T08:43:44;4.53;;;2.03;;
8978;SDS011;4524;51.364;5.448;2022-10-26T08:46:16;3.90;;;2.03;;
8978;SDS011;4524;51.364;5.448;2022-10-26T08:48:49;7.37;;;2.03;;
8978;SDS011;4524;51.364;5.448;2022-10-26T08:51:21;4.97;;;2.13;;
8978;SDS011;4524;51.364;5.448;2022-10-26T08:53:53;5.33;;;2.50;;
8978;SDS011;4524;51.364;5.448;2022-10-26T08:56:26;6.37;;;2.20;;
8978;SDS011;4524;51.364;5.448;2022-10-26T08:59:00;3.47;;;2.00;;
8978;SDS011;4524;51.364;5.448;2022-10-26T09:01:33;6.13;;;2.40;;
8978;SDS011;4524;51.364;5.448;2022-10-26T09:04:02;5.43;;;2.00;;
8978;SDS011;4524;51.364;5.448;2022-10-26T09:06:31;5.17;;;2.13;;
8978;SDS011;4524;51.364;5.448;2022-10-26T09:09:10;3.93;;;2.10;;
8978;SDS011;4524;51.364;5.448;2022-10-26T09:11:46;4.33;;;2.10;;
8978;SDS011;4524;51.364;5.448;2022-10-26T09:14:23;6.27;;;2.40;;
8978;SDS011;4524;51.364;5.448;2022-10-26T09:17:02;5.87;;;2.40;;
8978;SDS011;4524;51.364;5.448;2022-10-26T09:22:32;7.57;;;2.57;;
8978;SDS011;4524;51.364;5.448;2022-10-26T09:25:14;4.00;;;2.50;;
8978;SDS011;4524;51.364;5.448;2022-10-26T09:27:46;5.60;;;2.17;;
8978;SDS011;4524;51.364;5.448;2022-10-26T09:30:18;4.80;;;2.83;;
8978;SDS011;4524;51.364;5.448;2022-10-26T09:32:47;6.73;;;2.43;;
8978;SDS011;4524;51.364;5.448;2022-10-26T09:35:17;6.13;;;2.60;;
8978;SDS011;4524;51.364;5.448;2022-10-26T09:37:49;5.50;;;2.70;;
8978;SDS011;4524;51.364;5.448;2022-10-26T09:40:23;6.97;;;2.37;;
8978;SDS011;4524;51.364;5.448;2022-10-26T09:43:00;7.33;;;2.70;;
8978;SDS011;4524;51.364;5.448;2022-10-26T09:45:32;3.30;;;2.23;;
8978;SDS011;4524;51.364;5.448;2022-10-26T09:48:03;4.13;;;2.50;;
8978;SDS011;4524;51.364;5.448;2022-10-26T09:50:38;8.60;;;2.83;;
8978;SDS011;4524;51.364;5.448;2022-10-26T09:53:08;4.80;;;2.17;;
8978;SDS011;4524;51.364;5.448;2022-10-26T09:55:39;6.40;;;2.27;;
8978;SDS011;4524;51.364;5.448;2022-10-26T09:58:12;4.47;;;2.33;;
8978;SDS011;4524;51.364;5.448;2022-10-26T10:00:42;7.17;;;2.77;;
8978;SDS011;4524;51.364;5.448;2022-10-26T10:03:19;4.83;;;2.20;;
8978;SDS011;4524;51.364;5.448;2022-10-26T10:05:51;3.60;;;2.20;;
8978;SDS011;4524;51.364;5.448;2022-10-26T10:08:20;3.67;;;2.03;;
8978;SDS011;4524;51.364;5.448;2022-10-26T10:10:53;8.23;;;2.50;;
8978;SDS011;4524;51.364;5.448;2022-10-26T10:13:24;6.27;;;2.10;;
8978;SDS011;4524;51.364;5.448;2022-10-26T10:15:54;4.93;;;2.20;;
8978;SDS011;4524;51.364;5.448;2022-10-26T10:18:28;4.17;;;2.00;;
8978;SDS011;4524;51.364;5.448;2022-10-26T10:20:56;4.77;;;2.30;;
8978;SDS011;4524;51.364;5.448;2022-10-26T10:23:27;5.93;;;2.20;;
8978;SDS011;4524;51.364;5.448;2022-10-26T10:26:02;7.23;;;2.60;;
8978;SDS011;4524;51.364;5.448;2022-10-26T10:28:32;5.97;;;2.53;;
8978;SDS011;4524;51.364;5.448;2022-10-26T10:31:01;4.90;;;2.37;;
8978;SDS011;4524;51.364;5.448;2022-10-26T10:33:32;5.13;;;2.20;;
8978;SDS011;4524;51.364;5.448;2022-10-26T10:36:01;3.90;;;2.07;;
8978;SDS011;4524;51.364;5.448;2022-10-26T10:38:35;6.23;;;2.17;;
8978;SDS011;4524;51.364;5.448;2022-10-26T10:41:12;7.37;;;2.10;;
8978;SDS011;4524;51.364;5.448;2022-10-26T10:43:44;4.03;;;2.20;;
8978;SDS011;4524;51.364;5.448;2022-10-26T10:46:18;3.23;;;2.10;;
8978;SDS011;4524;51.364;5.448;2022-10-26T10:48:51;6.17;;;2.40;;
8978;SDS011;4524;51.364;5.448;2022-10-26T10:51:22;4.37;;;2.00;;
8978;SDS011;4524;51.364;5.448;2022-10-26T10:53:52;5.17;;;1.70;;
8978;SDS011;4524;51.364;5.448;2022-10-26T10:56:25;3.53;;;2.00;;
8978;SDS011;4524;51.364;5.448;2022-10-26T11:02:12;5.20;;;2.17;;
8978;SDS011;4524;51.364;5.448;2022-10-26T11:05:12;6.13;;;1.87;;
8978;SDS011;4524;51.364;5.448;2022-10-26T11:07:54;5.10;;;2.10;;
8978;SDS011;4524;51.364;5.448;2022-10-26T11:10:29;5.03;;;2.10;;
8978;SDS011;4524;51.364;5.448;2022-10-26T11:13:02;4.77;;;1.80;;
8978;SDS011;4524;51.364;5.448;2022-10-26T11:15:36;7.43;;;2.03;;
8978;SDS011;4524;51.364;5.448;2022-10-26T11:18:08;7.80;;;2.23;;
8978;SDS011;4524;51.364;5.448;2022-10-26T11:20:41;4.77;;;2.03;;
8978;SDS011;4524;51.364;5.448;2022-10-26T11:23:15;5.10;;;2.00;;
8978;SDS011;4524;51.364;5.448;2022-10-26T11:25:48;3.40;;;1.87;;
8978;SDS011;4524;51.364;5.448;2022-10-26T11:28:22;4.17;;;2.00;;
8978;SDS011;4524;51.364;5.448;2022-10-26T11:31:02;4.67;;;1.90;;
8978;SDS011;4524;51.364;5.448;2022-10-26T11:33:39;4.63;;;2.10;;
8978;SDS011;4524;51.364;5.448;2022-10-26T11:36:09;4.33;;;2.07;;
8978;SDS011;4524;51.364;5.448;2022-10-26T11:38:47;5.50;;;2.23;;
8978;SDS011;4524;51.364;5.448;2022-10-26T11:41:24;5.23;;;2.20;;
8978;SDS011;4524;51.364;5.448;2022-10-26T11:44:01;5.07;;;2.00;;
8978;SDS011;4524;51.364;5.448;2022-10-26T11:46:38;3.60;;;1.73;;
8978;SDS011;4524;51.364;5.448;2022-10-26T11:49:12;3.87;;;2.00;;
8978;SDS011;4524;51.364;5.448;2022-10-26T11:51:47;6.47;;;1.87;;
8978;SDS011;4524;51.364;5.448;2022-10-26T11:54:18;6.73;;;2.33;;
8978;SDS011;4524;51.364;5.448;2022-10-26T11:56:50;4.70;;;1.70;;
8978;SDS011;4524;51.364;5.448;2022-10-26T11:59:23;3.47;;;1.77;;
8978;SDS011;4524;51.364;5.448;2022-10-26T12:01:59;5.93;;;1.80;;
8978;SDS011;4524;51.364;5.448;2022-10-26T12:04:31;5.83;;;1.70;;
8978;SDS011;4524;51.364;5.448;2022-10-26T12:07:03;5.87;;;1.60;;
8978;SDS011;4524;51.364;5.448;2022-10-26T12:09:36;3.80;;;1.83;;
8978;SDS011;4524;51.364;5.448;2022-10-26T12:12:08;4.67;;;1.70;;
8978;SDS011;4524;51.364;5.448;2022-10-26T12:14:45;6.67;;;1.90;;
8978;SDS011;4524;51.364;5.448;2022-10-26T12:17:20;4.17;;;1.70;;
8978;SDS011;4524;51.364;5.448;2022-10-26T12:19:58;4.53;;;1.90;;
8978;SDS011;4524;51.364;5.448;2022-10-26T12:22:31;3.27;;;1.57;;
8978;SDS011;4524;51.364;5.448;2022-10-26T12:25:04;2.27;;;1.53;;
8978;SDS011;4524;51.364;5.448;2022-10-26T12:27:51;3.83;;;1.70;;
8978;SDS011;4524;51.364;5.448;2022-10-26T12:30:25;5.13;;;1.60;;
8978;SDS011;4524;51.364;5.448;2022-10-26T12:32:56;5.40;;;1.53;;
8978;SDS011;4524;51.364;5.448;2022-10-26T12:35:30;3.73;;;1.60;;
8978;SDS011;4524;51.364;5.448;2022-10-26T12:38:01;3.50;;;1.53;;
8978;SDS011;4524;51.364;5.448;2022-10-26T12:40:44;2.80;;;1.97;;
8978;SDS011;4524;51.364;5.448;2022-10-26T12:49:02;4.10;;;1.97;;
8978;SDS011;4524;51.364;5.448;2022-10-26T12:51:42;3.90;;;1.53;;
8978;SDS011;4524;51.364;5.448;2022-10-26T12:54:17;3.27;;;1.93;;
8978;SDS011;4524;51.364;5.448;2022-10-26T12:56:58;4.40;;;1.50;;
8978;SDS011;4524;51.364;5.448;2022-10-26T12:59:36;3.17;;;1.40;;
8978;SDS011;4524;51.364;5.448;2022-10-26T13:02:28;6.57;;;1.60;;
8978;SDS011;4524;51.364;5.448;2022-10-26T13:05:18;1.97;;;1.50;;
8978;SDS011;4524;51.364;5.448;2022-10-26T13:07:59;3.00;;;1.50;;
8978;SDS011;4524;51.364;5.448;2022-10-26T13:10:29;3.93;;;1.50;;
8978;SDS011;4524;51.364;5.448;2022-10-26T13:12:57;3.17;;;1.30;;
8978;SDS011;4524;51.364;5.448;2022-10-26T13:15:27;2.50;;;1.70;;
8978;SDS011;4524;51.364;5.448;2022-10-26T13:17:57;2.27;;;1.40;;
8978;SDS011;4524;51.364;5.448;2022-10-26T13:20:30;2.30;;;1.43;;
8978;SDS011;4524;51.364;5.448;2022-10-26T13:22:58;4.97;;;1.60;;
8978;SDS011;4524;51.364;5.448;2022-10-26T13:25:32;2.67;;;1.43;;
8978;SDS011;4524;51.364;5.448;2022-10-26T13:28:01;3.37;;;1.47;;
8978;SDS011;4524;51.364;5.448;2022-10-26T13:30:35;2.97;;;1.50;;
8978;SDS011;4524;51.364;5.448;2022-10-26T13:33:22;1.90;;;1.40;;
8978;SDS011;4524;51.364;5.448;2022-10-26T13:36:01;3.43;;;1.37;;
8978;SDS011;4524;51.364;5.448;2022-10-26T13:38:41;3.00;;;1.93;;
8978;SDS011;4524;51.364;5.448;2022-10-26T13:41:16;2.53;;;1.40;;
8978;SDS011;4524;51.364;5.448;2022-10-26T13:43:49;5.87;;;1.30;;
8978;SDS011;4524;51.364;5.448;2022-10-26T13:46:21;2.23;;;1.50;;
8978;SDS011;4524;51.364;5.448;2022-10-26T13:48:53;3.43;;;1.30;;
8978;SDS011;4524;51.364;5.448;2022-10-26T13:51:32;3.57;;;1.57;;
8978;SDS011;4524;51.364;5.448;2022-10-26T13:54:06;2.90;;;1.20;;
8978;SDS011;4524;51.364;5.448;2022-10-26T13:56:46;3.33;;;1.50;;
8978;SDS011;4524;51.364;5.448;2022-10-26T13:59:28;1.63;;;1.20;;
8978;SDS011;4524;51.364;5.448;2022-10-26T14:02:07;2.33;;;1.40;;
8978;SDS011;4524;51.364;5.448;2022-10-26T14:04:44;2.80;;;1.40;;
8978;SDS011;4524;51.364;5.448;2022-10-26T14:07:16;2.60;;;1.30;;
8978;SDS011;4524;51.364;5.448;2022-10-26T14:09:49;2.97;;;1.60;;
8978;SDS011;4524;51.364;5.448;2022-10-26T14:12:22;2.87;;;1.40;;
8978;SDS011;4524;51.364;5.448;2022-10-26T14:14:51;1.60;;;1.30;;
8978;SDS011;4524;51.364;5.448;2022-10-26T14:17:21;2.97;;;1.50;;
8978;SDS011;4524;51.364;5.448;2022-10-26T14:19:50;3.13;;;1.53;;
8978;SDS011;4524;51.364;5.448;2022-10-26T14:22:21;2.33;;;1.63;;
8978;SDS011;4524;51.364;5.448;2022-10-26T14:24:53;4.27;;;1.53;;
8978;SDS011;4524;51.364;5.448;2022-10-26T14:27:23;4.47;;;1.50;;
8978;SDS011;4524;51.364;5.448;2022-10-26T14:29:52;3.00;;;1.30;;
8978;SDS011;4524;51.364;5.448;2022-10-26T14:32:41;2.87;;;1.50;;
8978;SDS011;4524;51.364;5.448;2022-10-26T14:35:10;5.90;;;1.80;;
8978;SDS011;4524;51.364;5.448;2022-10-26T14:37:42;7.60;;;1.83;;
8978;SDS011;4524;51.364;5.448;2022-10-26T14:40:14;3.53;;;1.90;;
8978;SDS011;4524;51.364;5.448;2022-10-26T14:42:44;5.67;;;1.87;;
8978;SDS011;4524;51.364;5.448;2022-10-26T14:45:21;4.57;;;2.10;;
8978;SDS011;4524;51.364;5.448;2022-10-26T14:48:14;5.53;;;1.93;;
8978;SDS011;4524;51.364;5.448;2022-10-26T14:50:59;2.93;;;1.60;;
8978;SDS011;4524;51.364;5.448;2022-10-26T14:53:31;4.43;;;1.60;;
8978;SDS011;4524;51.364;5.448;2022-10-26T14:56:02;3.80;;;1.33;;
8978;SDS011;4524;51.364;5.448;2022-10-26T14:58:31;2.47;;;1.23;;
8978;SDS011;4524;51.364;5.448;2022-10-26T15:01:14;4.93;;;1.57;;
8978;SDS011;4524;51.364;5.448;2022-10-26T15:03:43;2.53;;;1.37;;
8978;SDS011;4524;51.364;5.448;2022-10-26T15:06:33;3.00;;;1.57;;
8978;SDS011;4524;51.364;5.448;2022-10-26T15:09:27;2.83;;;1.60;;
8978;SDS011;4524;51.364;5.448;2022-10-26T15:11:58;3.87;;;1.50;;
8978;SDS011;4524;51.364;5.448;2022-10-26T15:14:28;2.43;;;1.30;;
8978;SDS011;4524;51.364;5.448;2022-10-26T15:16:56;4.00;;;1.87;;
8978;SDS011;4524;51.364;5.448;2022-10-26T15:19:25;3.13;;;1.70;;
8978;SDS011;4524;51.364;5.448;2022-10-26T15:21:54;6.23;;;1.60;;
8978;SDS011;4524;51.364;5.448;2022-10-26T15:24:28;5.13;;;1.50;;
8978;SDS011;4524;51.364;5.448;2022-10-26T15:27:03;2.87;;;1.10;;
8978;SDS011;4524;51.364;5.448;2022-10-26T15:29:40;3.73;;;1.50;;
8978;SDS011;4524;51.364;5.448;2022-10-26T15:32:26;2.87;;;1.40;;
8978;SDS011;4524;51.364;5.448;2022-10-26T15:35:12;4.37;;;1.70;;
8978;SDS011;4524;51.364;5.448;2022-10-26T15:37:54;4.57;;;1.80;;
8978;SDS011;4524;51.364;5.448;2022-10-26T15:40:24;3.40;;;1.37;;
8978;SDS011;4524;51.364;5.448;2022-10-26T15:42:54;7.10;;;1.90;;
8978;SDS011;4524;51.364;5.448;2022-10-26T15:45:26;6.17;;;1.83;;
8978;SDS011;4524;51.364;5.448;2022-10-26T15:47:55;6.17;;;1.70;;
8978;SDS011;4524;51.364;5.448;2022-10-26T15:50:26;5.43;;;1.87;;
8978;SDS011;4524;51.364;5.448;2022-10-26T15:52:55;2.57;;;1.40;;
8978;SDS011;4524;51.364;5.448;2022-10-26T15:55:28;6.93;;;1.90;;
8978;SDS011;4524;51.364;5.448;2022-10-26T15:57:56;4.90;;;1.80;;
8978;SDS011;4524;51.364;5.448;2022-10-26T16:00:24;7.77;;;2.57;;
8978;SDS011;4524;51.364;5.448;2022-10-26T16:02:52;11.07;;;2.13;;
8978;SDS011;4524;51.364;5.448;2022-10-26T16:05:20;5.50;;;2.27;;
8978;SDS011;4524;51.364;5.448;2022-10-26T16:07:48;10.90;;;2.00;;
8978;SDS011;4524;51.364;5.448;2022-10-26T16:10:17;9.33;;;2.17;;